Time;durP1;ratioP1;P1;durP2;ratioP2;P2;SDS_P1;SDS_P2;PMS_P1;PMS_P2;Temp;Humidity;BMP_temperature;BMP_pressure;BME280_temperature;BME280_humidity;BME280_pressure;Samples;Min_cycle;Max_cycle;Signal;HPM_P1;HPM_P2
2022/07/27 00:01:26;;;;;;;2.60;1.07;;;23.50;71.70;;;;;;5068331;28;20201;-66
2022/07/27 00:03:53;;;;;;;17.47;1.83;;;23.50;71.60;;;;;;5091025;28;20182;-66
2022/07/27 00:06:19;;;;;;;3.40;1.10;;;23.40;71.40;;;;;;5073443;28;20201;-65
2022/07/27 00:08:45;;;;;;;2.63;1.00;;;23.40;71.00;;;;;;5071843;28;20217;-63
2022/07/27 00:11:12;;;;;;;2.17;1.00;;;23.40;71.90;;;;;;5056233;28;20225;-64
2022/07/27 00:13:39;;;;;;;4.83;1.30;;;23.40;72.40;;;;;;5072983;28;20182;-65
2022/07/27 00:16:10;;;;;;;4.13;1.20;;;23.40;71.80;;;;;;5090296;28;20221;-64
2022/07/27 00:18:37;;;;;;;1.63;1.17;;;23.30;72.10;;;;;;5055644;28;20193;-64
2022/07/27 00:21:05;;;;;;;2.33;1.20;;;23.30;72.20;;;;;;5072843;28;20532;-66
2022/07/27 00:23:32;;;;;;;2.00;1.00;;;23.30;71.20;;;;;;5072280;28;20182;-65
2022/07/27 00:26:00;;;;;;;2.47;0.90;;;23.30;70.70;;;;;;5055369;28;20316;-69
2022/07/27 00:28:26;;;;;;;1.88;1.05;;;23.20;70.00;;;;;;5090738;28;20273;-65
2022/07/27 00:30:53;;;;;;;1.53;1.00;;;23.20;69.90;;;;;;5091038;28;20825;-65
2022/07/27 00:33:19;;;;;;;1.20;1.10;;;23.20;70.10;;;;;;5090404;28;20209;-63
2022/07/27 00:35:46;;;;;;;6.30;1.00;;;23.20;69.80;;;;;;5054542;28;20248;-68
2022/07/27 00:38:12;;;;;;;4.00;1.17;;;23.20;70.00;;;;;;5071133;28;20187;-64
2022/07/27 00:40:39;;;;;;;4.13;1.13;;;23.20;70.10;;;;;;5072357;28;20189;-64
2022/07/27 00:43:06;;;;;;;3.40;1.10;;;23.20;70.00;;;;;;5090488;28;20258;-64
2022/07/27 00:45:33;;;;;;;1.47;1.00;;;23.10;70.10;;;;;;5090523;28;20276;-66
2022/07/27 00:48:00;;;;;;;2.30;1.07;;;23.20;70.30;;;;;;5089524;28;20225;-66
2022/07/27 00:50:26;;;;;;;1.47;0.80;;;23.20;69.60;;;;;;5072243;28;20188;-66
2022/07/27 00:52:54;;;;;;;2.27;1.13;;;23.10;68.00;;;;;;5072605;28;20221;-64
2022/07/27 00:55:21;;;;;;;3.40;1.10;;;23.10;67.70;;;;;;5086849;28;20710;-66
2022/07/27 00:57:47;;;;;;;4.17;1.20;;;23.20;68.30;;;;;;5074994;28;20670;-65
2022/07/27 01:00:14;;;;;;;1.83;1.00;;;23.10;67.70;;;;;;5089534;28;20174;-64
2022/07/27 01:02:41;;;;;;;3.33;1.30;;;23.10;67.70;;;;;;5089214;28;20190;-66
2022/07/27 01:05:08;;;;;;;1.57;1.20;;;23.10;68.40;;;;;;5087158;28;20315;-67
2022/07/27 01:07:34;;;;;;;1.37;1.03;;;23.20;69.70;;;;;;5089443;28;20178;-64
2022/07/27 01:10:06;;;;;;;2.10;1.07;;;23.20;69.50;;;;;;5088413;28;20292;-66
2022/07/27 01:12:33;;;;;;;1.40;1.00;;;23.10;69.20;;;;;;5087589;28;20201;-65
2022/07/27 01:15:00;;;;;;;2.33;0.90;;;22.90;69.40;;;;;;5076561;28;20698;-65
2022/07/27 01:17:29;;;;;;;1.60;1.00;;;22.80;69.40;;;;;;5072182;28;20714;-65
2022/07/27 01:19:57;;;;;;;2.90;1.00;;;22.80;69.10;;;;;;5067108;28;20183;-65
2022/07/27 01:22:24;;;;;;;4.43;1.07;;;22.70;68.90;;;;;;5074299;28;20190;-66
2022/07/27 01:24:51;;;;;;;2.77;1.17;;;22.70;69.00;;;;;;5072227;28;20319;-66
2022/07/27 01:27:17;;;;;;;5.90;1.30;;;22.60;69.10;;;;;;5087268;28;20194;-64
2022/07/27 01:29:44;;;;;;;3.23;1.00;;;22.60;69.20;;;;;;5074931;28;20182;-66
2022/07/27 01:32:10;;;;;;;3.17;1.20;;;22.60;69.20;;;;;;5072633;28;20274;-67
2022/07/27 01:34:36;;;;;;;2.30;1.10;;;22.60;69.50;;;;;;5086868;28;20182;-64
2022/07/27 01:37:04;;;;;;;3.20;1.17;;;22.60;69.30;;;;;;5088076;28;20178;-64
2022/07/27 01:39:32;;;;;;;6.50;1.00;;;22.60;69.00;;;;;;5075952;28;20182;-66
2022/07/27 01:41:59;;;;;;;2.23;1.10;;;22.50;69.10;;;;;;5080075;28;20182;-66
2022/07/27 01:44:26;;;;;;;2.70;1.10;;;22.50;69.00;;;;;;5085484;28;20178;-64
2022/07/27 01:46:53;;;;;;;2.80;1.13;;;22.50;69.30;;;;;;5087720;28;20201;-67
2022/07/27 01:49:21;;;;;;;1.70;1.07;;;22.50;69.20;;;;;;5074838;28;20194;-65
2022/07/27 01:51:47;;;;;;;2.37;1.10;;;22.50;69.10;;;;;;5088043;28;20190;-65
2022/07/27 01:54:14;;;;;;;1.03;0.90;;;22.50;69.10;;;;;;5087331;28;20219;-64
2022/07/27 01:56:43;;;;;;;3.40;1.00;;;22.50;69.90;;;;;;5084738;28;20221;-66
2022/07/27 01:59:10;;;;;;;2.27;1.30;;;22.50;69.20;;;;;;5087299;28;20635;-65
2022/07/27 02:01:37;;;;;;;1.13;0.90;;;22.50;69.00;;;;;;5084509;28;20213;-65
2022/07/27 02:04:04;;;;;;;1.87;1.20;;;22.50;69.00;;;;;;5088893;28;20182;-66
2022/07/27 02:06:30;;;;;;;1.10;1.00;;;22.50;68.90;;;;;;5088634;28;20588;-64
2022/07/27 02:08:57;;;;;;;5.90;1.20;;;22.50;69.10;;;;;;5089204;28;20193;-66
2022/07/27 02:14:11;;;;;;;3.93;1.20;;;22.60;69.50;;;;;;5089098;28;20174;-66
2022/07/27 02:16:38;;;;;;;1.70;1.10;;;22.60;68.80;;;;;;5087475;28;20221;-66
2022/07/27 02:19:05;;;;;;;1.40;0.83;;;22.60;68.60;;;;;;5088445;28;20180;-65
2022/07/27 02:21:33;;;;;;;4.13;1.13;;;22.60;68.80;;;;;;5088084;28;20523;-65
2022/07/27 02:24:00;;;;;;;1.20;0.90;;;22.70;69.30;;;;;;5080656;28;20577;-66
2022/07/27 02:26:27;;;;;;;2.10;1.10;;;22.70;69.00;;;;;;5066371;28;20278;-64
2022/07/27 02:28:53;;;;;;;4.37;1.00;;;22.70;69.00;;;;;;5085992;28;20218;-66
2022/07/27 02:31:20;;;;;;;3.00;1.10;;;22.70;69.00;;;;;;5087926;28;20543;-64
2022/07/27 02:33:46;;;;;;;3.17;1.00;;;22.70;69.10;;;;;;5069164;28;20263;-66
2022/07/27 02:36:12;;;;;;;1.93;1.00;;;22.70;68.90;;;;;;5069633;28;20224;-65
2022/07/27 02:38:39;;;;;;;1.57;1.17;;;22.70;68.90;;;;;;5076087;28;20623;-64
2022/07/27 02:41:06;;;;;;;2.43;1.20;;;22.70;68.50;;;;;;5070797;28;20189;-66
2022/07/27 02:43:32;;;;;;;1.10;0.97;;;22.70;68.80;;;;;;5069764;28;20183;-67
2022/07/27 02:45:58;;;;;;;2.70;1.30;;;22.70;68.80;;;;;;5084845;28;20228;-66
2022/07/27 02:48:25;;;;;;;3.47;1.13;;;22.70;69.30;;;;;;5087482;28;20302;-64
2022/07/27 02:50:52;;;;;;;2.07;1.10;;;22.70;69.30;;;;;;5088804;28;20603;-66
2022/07/27 02:53:18;;;;;;;1.57;0.90;;;22.70;69.70;;;;;;5087469;28;20193;-66
2022/07/27 02:55:45;;;;;;;3.03;1.13;;;22.70;69.90;;;;;;5086686;28;20213;-65
2022/07/27 02:58:11;;;;;;;4.83;1.20;;;22.70;70.10;;;;;;5086859;28;20190;-66
2022/07/27 03:00:37;;;;;;;1.57;1.07;;;22.70;70.20;;;;;;5068713;28;20524;-64
2022/07/27 03:03:04;;;;;;;2.23;1.10;;;22.70;70.30;;;;;;5068107;28;20190;-64
2022/07/27 03:05:31;;;;;;;4.60;1.10;;;22.70;70.70;;;;;;5052449;28;20319;-66
2022/07/27 03:07:57;;;;;;;1.30;1.20;;;22.60;70.50;;;;;;5079427;28;20193;-66
2022/07/27 03:10:23;;;;;;;4.80;1.13;;;22.60;70.50;;;;;;5070107;28;20651;-64
2022/07/27 03:12:51;;;;;;;1.20;0.90;;;22.60;71.00;;;;;;5083449;28;20218;-64
2022/07/27 03:15:17;;;;;;;2.43;1.40;;;22.60;71.10;;;;;;5082745;28;20309;-64
2022/07/27 03:17:44;;;;;;;3.17;1.30;;;22.60;71.50;;;;;;5086653;28;20198;-64
2022/07/27 03:20:11;;;;;;;2.30;0.93;;;22.60;71.60;;;;;;5088071;28;20639;-65
2022/07/27 03:22:37;;;;;;;1.80;1.00;;;22.60;71.80;;;;;;5087021;28;20178;-65
2022/07/27 03:25:04;;;;;;;2.00;1.03;;;22.60;71.80;;;;;;5085517;28;20189;-64
2022/07/27 03:27:30;;;;;;;1.93;1.10;;;22.60;71.90;;;;;;5079151;28;20205;-65
2022/07/27 03:29:57;;;;;;;1.43;1.17;;;22.60;71.60;;;;;;5073941;28;20182;-65
2022/07/27 03:32:24;;;;;;;2.03;1.00;;;22.70;71.70;;;;;;5086584;28;20185;-67
2022/07/27 03:34:51;;;;;;;2.83;1.03;;;22.70;72.20;;;;;;5074187;28;20202;-66
2022/07/27 03:37:18;;;;;;;1.10;1.00;;;22.70;72.00;;;;;;5082034;28;20550;-64
2022/07/27 03:39:46;;;;;;;1.20;1.10;;;22.70;71.90;;;;;;5094026;28;20220;-64
2022/07/27 03:42:12;;;;;;;2.00;1.20;;;22.80;71.90;;;;;;5071641;28;20186;-65
2022/07/27 03:44:38;;;;;;;2.13;1.20;;;22.90;72.30;;;;;;5069921;28;20277;-67
2022/07/27 03:47:05;;;;;;;1.87;1.20;;;22.90;72.70;;;;;;5091223;28;20251;-66
2022/07/27 03:49:31;;;;;;;2.73;1.20;;;23.00;72.70;;;;;;5091263;28;20182;-64
2022/07/27 03:51:57;;;;;;;1.70;1.10;;;23.00;72.60;;;;;;5076035;28;20186;-64
2022/07/27 03:54:23;;;;;;;3.87;1.00;;;23.00;72.90;;;;;;5090454;28;20190;-64
2022/07/27 03:56:49;;;;;;;3.83;1.20;;;23.10;72.70;;;;;;5071886;28;20210;-67
2022/07/27 03:59:16;;;;;;;1.80;1.00;;;23.20;73.00;;;;;;5088699;28;20531;-67
2022/07/27 04:01:42;;;;;;;1.47;1.37;;;23.20;73.70;;;;;;5061047;28;20198;-65
2022/07/27 04:04:08;;;;;;;1.60;1.27;;;23.20;74.10;;;;;;5075766;28;20670;-64
2022/07/27 04:06:37;;;;;;;2.00;1.33;;;23.20;74.20;;;;;;5090853;28;20221;-67
2022/07/27 04:09:04;;;;;;;2.00;1.30;;;23.20;74.60;;;;;;5073027;28;20194;-66
2022/07/27 04:11:30;;;;;;;3.77;1.00;;;23.20;74.70;;;;;;5057905;28;20191;-66
2022/07/27 04:13:56;;;;;;;1.93;1.10;;;23.20;74.50;;;;;;5072933;28;20278;-66
2022/07/27 04:16:24;;;;;;;3.20;1.20;;;23.20;74.70;;;;;;5075803;28;20259;-65
2022/07/27 04:18:52;;;;;;;1.10;0.90;;;23.20;74.90;;;;;;5053155;28;20198;-64
2022/07/27 04:21:18;;;;;;;1.33;1.13;;;23.20;75.10;;;;;;5088688;28;20194;-67
2022/07/27 04:23:44;;;;;;;2.53;1.00;;;23.20;75.40;;;;;;5079794;28;20232;-65
2022/07/27 04:26:11;;;;;;;1.10;0.97;;;23.20;75.40;;;;;;5060359;28;20194;-65
2022/07/27 04:28:37;;;;;;;3.27;1.37;;;23.30;75.60;;;;;;5090995;28;20201;-66
2022/07/27 04:31:03;;;;;;;3.30;1.10;;;23.30;75.90;;;;;;5072580;28;20297;-66
2022/07/27 04:33:31;;;;;;;2.23;1.30;;;23.40;76.10;;;;;;5089581;28;20202;-66
2022/07/27 04:35:57;;;;;;;3.50;1.30;;;23.50;76.50;;;;;;5054276;28;20214;-68
2022/07/27 04:38:23;;;;;;;3.67;1.30;;;23.50;76.50;;;;;;5090233;28;20569;-65
2022/07/27 04:40:50;;;;;;;1.30;1.10;;;23.60;76.40;;;;;;5072319;28;20190;-65
2022/07/27 04:43:17;;;;;;;1.70;1.07;;;23.60;75.90;;;;;;5074745;28;20187;-65
2022/07/27 04:45:43;;;;;;;1.77;1.00;;;23.80;75.60;;;;;;5086355;28;20213;-66
2022/07/27 04:48:09;;;;;;;3.03;1.10;;;23.90;75.80;;;;;;5089486;28;20214;-65
2022/07/27 04:50:44;;;;;;;1.80;1.20;;;24.00;76.60;;;;;;5088825;28;20220;-66
2022/07/27 04:53:12;;;;;;;3.30;1.20;;;24.10;77.30;;;;;;5090168;28;20200;-65
2022/07/27 04:55:45;;;;;;;1.10;1.00;;;24.10;76.40;;;;;;5077479;28;20567;-64
2022/07/27 04:58:13;;;;;;;1.95;1.20;;;24.20;77.30;;;;;;5087066;28;20650;-65
2022/07/27 05:00:40;;;;;;;4.70;1.08;;;24.30;78.90;;;;;;5090142;28;20195;-66
2022/07/27 05:03:06;;;;;;;1.10;1.00;;;24.40;78.20;;;;;;5090154;28;20387;-67
2022/07/27 05:05:32;;;;;;;1.57;1.20;;;24.50;78.10;;;;;;5079443;28;20190;-68
2022/07/27 05:07:59;;;;;;;2.85;1.02;;;24.50;77.80;;;;;;5089468;28;20188;-66
2022/07/27 05:10:25;;;;;;;3.00;1.10;;;24.60;76.70;;;;;;5090282;28;20348;-65
2022/07/27 05:12:52;;;;;;;3.60;1.10;;;24.70;77.10;;;;;;5088174;28;20860;-65
2022/07/27 05:15:19;;;;;;;3.50;1.20;;;24.80;76.50;;;;;;5090147;28;20213;-64
2022/07/27 05:17:46;;;;;;;3.13;1.10;;;24.90;77.20;;;;;;5089125;28;20217;-66
2022/07/27 05:20:13;;;;;;;2.65;1.27;;;24.90;75.70;;;;;;5088758;28;20745;-65
2022/07/27 05:22:40;;;;;;;2.63;1.30;;;24.90;75.80;;;;;;5080421;28;20239;-64
2022/07/27 05:25:07;;;;;;;2.50;1.08;;;24.90;74.90;;;;;;5075370;28;20202;-65
2022/07/27 05:27:35;;;;;;;2.53;1.20;;;25.00;74.60;;;;;;5078861;28;20793;-64
2022/07/27 05:30:06;;;;;;;5.15;1.15;;;25.10;75.00;;;;;;5089724;28;20262;-64
2022/07/27 05:32:33;;;;;;;4.20;1.20;;;25.10;73.30;;;;;;5088947;28;20194;-66
2022/07/27 05:34:59;;;;;;;4.35;1.20;;;25.20;73.10;;;;;;5092321;28;20178;-66
2022/07/27 05:37:25;;;;;;;1.10;1.00;;;25.20;74.30;;;;;;5075320;28;20237;-66
2022/07/27 05:39:53;;;;;;;1.75;1.20;;;25.20;74.20;;;;;;5086178;28;20617;-66
2022/07/27 05:42:20;;;;;;;2.13;1.10;;;25.30;75.00;;;;;;5082315;28;20182;-65
2022/07/27 05:44:46;;;;;;;3.35;1.25;;;25.30;73.60;;;;;;5087864;28;20186;-65
2022/07/27 05:47:12;;;;;;;5.13;1.20;;;25.50;72.50;;;;;;5069136;28;20647;-68
2022/07/27 05:49:38;;;;;;;4.35;1.27;;;25.60;71.80;;;;;;5086188;28;20194;-65
2022/07/27 05:52:05;;;;;;;2.50;1.10;;;25.90;71.40;;;;;;5085717;28;20182;-64
2022/07/27 05:54:31;;;;;;;2.33;1.27;;;26.10;71.10;;;;;;5084980;28;20662;-64
2022/07/27 05:56:57;;;;;;;2.88;1.40;;;26.20;71.00;;;;;;5049992;28;20211;-65
2022/07/27 05:59:24;;;;;;;3.42;1.42;;;26.20;71.40;;;;;;5055664;28;20183;-65
2022/07/27 06:01:54;;;;;;;2.25;1.33;;;26.30;71.10;;;;;;5087935;28;20232;-66
2022/07/27 06:04:20;;;;;;;3.55;1.23;;;26.50;70.90;;;;;;5084051;28;20290;-65
2022/07/27 06:09:31;;;;;;;6.15;1.30;;;26.70;72.20;;;;;;5084108;28;20178;-64
2022/07/27 06:11:58;;;;;;;14.90;1.88;;;26.80;74.60;;;;;;5059055;28;20651;-63
2022/07/27 06:14:24;;;;;;;5.13;1.63;;;26.80;77.00;;;;;;5084849;28;20213;-66
2022/07/27 06:16:50;;;;;;;9.48;1.48;;;27.00;78.00;;;;;;5068780;28;21066;-63
2022/07/27 06:19:16;;;;;;;7.55;1.40;;;27.00;77.20;;;;;;5086847;28;20230;-65
2022/07/27 06:21:43;;;;;;;5.97;1.50;;;27.10;76.20;;;;;;5088450;28;20182;-65
2022/07/27 06:24:11;;;;;;;7.10;1.40;;;27.20;77.60;;;;;;5088506;28;20178;-64
2022/07/27 06:26:37;;;;;;;3.20;1.42;;;27.30;78.80;;;;;;5085123;28;20904;-64
2022/07/27 06:29:04;;;;;;;4.00;1.50;;;27.40;79.80;;;;;;5070245;28;20288;-63
2022/07/27 06:31:30;;;;;;;5.82;1.40;;;27.40;79.70;;;;;;5088151;28;20189;-64
2022/07/27 06:33:57;;;;;;;2.63;1.30;;;27.40;79.80;;;;;;5067715;28;20204;-65
2022/07/27 06:36:24;;;;;;;5.72;1.50;;;27.50;79.40;;;;;;5065828;28;20214;-63
2022/07/27 06:38:51;;;;;;;5.22;1.38;;;27.60;78.80;;;;;;5064627;28;20868;-63
2022/07/27 06:41:17;;;;;;;3.65;1.40;;;27.70;78.20;;;;;;5083265;28;20269;-63
2022/07/27 06:43:46;;;;;;;5.70;1.40;;;27.80;76.90;;;;;;5057137;28;20743;-67
2022/07/27 06:46:13;;;;;;;5.90;1.42;;;27.90;76.00;;;;;;5085556;28;20198;-63
2022/07/27 06:48:42;;;;;;;11.43;1.75;;;28.00;76.70;;;;;;5086572;28;20190;-64
2022/07/27 06:51:08;;;;;;;5.90;1.52;;;28.00;79.10;;;;;;5070750;28;20511;-66
2022/07/27 06:53:35;;;;;;;2.65;1.33;;;28.10;79.70;;;;;;5067568;28;20669;-67
2022/07/27 06:56:04;;;;;;;3.85;1.33;;;28.10;80.50;;;;;;5064370;28;20198;-66
2022/07/27 06:58:32;;;;;;;2.92;1.42;;;28.20;82.00;;;;;;5070971;28;20201;-64
2022/07/27 07:01:03;;;;;;;2.45;1.30;;;28.40;82.10;;;;;;5069306;28;20657;-65
2022/07/27 07:03:30;;;;;;;3.13;1.38;;;28.40;83.10;;;;;;5085582;28;20182;-63
2022/07/27 07:05:56;;;;;;;4.88;1.42;;;28.40;82.80;;;;;;5071156;28;20267;-64
2022/07/27 07:08:23;;;;;;;5.30;1.33;;;28.50;82.50;;;;;;5080933;28;20240;-68
2022/07/27 07:10:49;;;;;;;5.85;1.55;;;28.60;83.50;;;;;;5087057;28;20581;-66
2022/07/27 07:13:16;;;;;;;4.43;1.40;;;28.60;83.90;;;;;;5067052;28;20179;-64
2022/07/27 07:15:43;;;;;;;5.07;1.40;;;28.70;86.80;;;;;;5075835;28;20841;-65
2022/07/27 07:18:11;;;;;;;11.38;1.30;;;28.70;88.30;;;;;;5089629;28;20233;-64
2022/07/27 07:20:38;;;;;;;8.75;1.48;;;28.80;88.60;;;;;;5091632;28;20653;-66
2022/07/27 07:23:05;;;;;;;7.15;1.58;;;28.80;88.60;;;;;;5080186;28;20261;-65
2022/07/27 07:25:33;;;;;;;2.15;1.38;;;28.90;89.10;;;;;;5091084;28;20681;-67
2022/07/27 07:28:01;;;;;;;5.43;1.40;;;28.90;89.30;;;;;;5087778;28;20274;-66
2022/07/27 07:30:29;;;;;;;5.93;1.50;;;29.00;89.70;;;;;;5054772;28;20197;-67
2022/07/27 07:32:56;;;;;;;3.15;1.40;;;29.10;88.90;;;;;;5069030;28;20182;-68
2022/07/27 07:35:24;;;;;;;2.33;1.60;;;29.10;89.80;;;;;;5076607;28;20692;-67
2022/07/27 07:37:50;;;;;;;5.20;1.52;;;29.20;90.20;;;;;;5071622;28;20182;-67
2022/07/27 07:40:18;;;;;;;2.47;1.50;;;29.30;90.20;;;;;;5091062;28;20649;-65
2022/07/27 07:43:04;;;;;;;7.75;1.50;;;29.30;89.90;;;;;;5090810;28;20192;-65
2022/07/27 07:45:34;;;;;;;3.95;1.33;;;29.40;90.30;;;;;;5100127;28;20255;-65
2022/07/27 07:48:00;;;;;;;6.03;1.40;;;29.50;90.40;;;;;;5078407;28;20243;-65
2022/07/27 07:50:27;;;;;;;3.80;1.48;;;29.50;90.50;;;;;;5073762;28;20187;-65
2022/07/27 07:52:54;;;;;;;2.20;1.50;;;29.50;90.70;;;;;;5071938;28;20217;-67
2022/07/27 07:55:24;;;;;;;8.45;1.65;;;29.60;91.00;;;;;;5056538;28;20560;-66
2022/07/27 07:57:52;;;;;;;4.82;1.50;;;29.60;90.40;;;;;;5084968;28;20183;-68
2022/07/27 08:00:19;;;;;;;8.40;2.28;;;29.70;90.30;;;;;;5071639;28;20182;-66
2022/07/27 08:02:52;;;;;;;11.50;1.60;;;29.80;90.30;;;;;;5088598;28;20190;-66
2022/07/27 08:05:20;;;;;;;6.28;1.67;;;29.80;90.90;;;;;;5090558;28;20193;-68
2022/07/27 08:07:50;;;;;;;2.92;1.40;;;29.80;90.70;;;;;;5088884;28;20191;-66
2022/07/27 08:10:20;;;;;;;2.60;1.48;;;29.90;90.50;;;;;;5067110;28;20222;-66
2022/07/27 08:12:50;;;;;;;14.63;1.75;;;29.90;90.70;;;;;;5079271;28;20186;-66
2022/07/27 08:15:17;;;;;;;3.70;1.38;;;30.00;90.20;;;;;;5072173;28;20202;-66
2022/07/27 08:17:44;;;;;;;4.18;1.40;;;30.10;90.30;;;;;;5072771;28;20662;-64
2022/07/27 08:20:13;;;;;;;4.47;1.23;;;30.20;90.00;;;;;;5077558;28;20186;-66
2022/07/27 08:22:40;;;;;;;3.90;1.33;;;30.20;89.50;;;;;;5090602;28;20182;-66
2022/07/27 08:25:08;;;;;;;3.15;1.58;;;30.30;88.50;;;;;;5069950;28;20698;-64
2022/07/27 08:27:35;;;;;;;6.20;1.73;;;30.40;87.90;;;;;;5073033;28;20206;-67
2022/07/27 08:30:04;;;;;;;6.68;1.75;;;30.40;88.00;;;;;;5085917;28;20186;-66
2022/07/27 08:32:31;;;;;;;7.95;1.50;;;30.50;89.40;;;;;;5090073;28;20186;-66
2022/07/27 08:34:58;;;;;;;7.18;1.58;;;30.60;89.50;;;;;;5083582;28;20193;-65
2022/07/27 08:37:24;;;;;;;2.22;1.27;;;30.60;89.30;;;;;;5069710;28;20283;-67
2022/07/27 08:39:50;;;;;;;5.85;1.70;;;30.60;90.00;;;;;;5071740;28;20647;-65
2022/07/27 08:42:18;;;;;;;2.70;1.70;;;30.70;89.80;;;;;;5076959;28;20197;-66
2022/07/27 08:44:48;;;;;;;2.67;1.30;;;30.70;90.30;;;;;;5081579;28;20189;-65
2022/07/27 08:47:15;;;;;;;5.88;1.70;;;30.90;90.70;;;;;;5071925;28;20551;-65
2022/07/27 08:49:43;;;;;;;4.05;1.45;;;31.00;90.90;;;;;;5069995;28;20198;-66
2022/07/27 08:52:11;;;;;;;5.38;1.77;;;31.10;90.60;;;;;;5081464;28;20222;-67
2022/07/27 08:54:41;;;;;;;3.33;1.50;;;30.90;90.90;;;;;;5070364;28;20200;-66
2022/07/27 08:57:10;;;;;;;4.30;1.58;;;31.00;91.10;;;;;;5072531;28;20245;-65
2022/07/27 08:59:36;;;;;;;4.85;1.52;;;31.20;91.40;;;;;;5088014;28;20714;-65
2022/07/27 09:02:09;;;;;;;4.13;1.55;;;31.30;91.30;;;;;;5088514;28;20224;-67
2022/07/27 09:04:38;;;;;;;5.60;1.67;;;31.30;91.50;;;;;;5074165;28;20186;-65
2022/07/27 09:07:05;;;;;;;6.20;1.50;;;31.40;91.80;;;;;;5070532;28;20178;-68
2022/07/27 09:09:45;;;;;;;6.03;1.20;;;31.50;92.50;;;;;;5068453;28;20190;-66
2022/07/27 09:12:11;;;;;;;2.33;1.60;;;31.50;92.30;;;;;;5068708;28;20210;-67
2022/07/27 09:14:40;;;;;;;2.95;1.75;;;31.70;92.40;;;;;;5089309;28;20212;-65
2022/07/27 09:17:26;;;;;;;4.47;1.77;;;31.70;92.40;;;;;;5070329;28;20205;-65
2022/07/27 09:20:03;;;;;;;3.15;1.63;;;31.80;92.40;;;;;;5070301;28;20322;-64
2022/07/27 09:22:45;;;;;;;4.07;1.52;;;31.90;92.60;;;;;;5089471;28;20210;-64
2022/07/27 09:25:17;;;;;;;7.35;1.60;;;32.00;92.60;;;;;;5089272;28;20277;-66
2022/07/27 09:27:45;;;;;;;3.63;1.80;;;32.00;92.90;;;;;;5070485;28;20182;-64
2022/07/27 09:30:19;;;;;;;5.10;1.77;;;32.00;93.10;;;;;;5062592;28;20754;-66
2022/07/27 09:33:15;;;;;;;4.13;1.70;;;32.20;92.50;;;;;;5078846;28;20187;-65
2022/07/27 09:35:43;;;;;;;4.60;1.63;;;32.40;92.60;;;;;;5066634;28;20324;-65
2022/07/27 09:38:23;;;;;;;8.27;1.77;;;32.50;93.10;;;;;;5076501;28;20193;-65
2022/07/27 09:41:02;;;;;;;8.60;1.92;;;32.50;93.10;;;;;;5087249;28;20182;-67
2022/07/27 09:43:28;;;;;;;4.25;1.77;;;32.70;92.80;;;;;;5061227;28;20185;-69
2022/07/27 09:45:55;;;;;;;5.60;1.75;;;32.80;92.80;;;;;;5041308;28;20512;-63
2022/07/27 09:48:23;;;;;;;3.80;1.60;;;32.90;93.30;;;;;;5071349;28;20190;-62
2022/07/27 09:51:00;;;;;;;7.35;1.90;;;33.00;93.20;;;;;;5068564;28;20201;-65
2022/07/27 09:53:31;;;;;;;8.85;1.88;;;33.00;93.40;;;;;;5068518;28;20190;-65
2022/07/27 09:56:16;;;;;;;9.40;1.88;;;33.10;93.10;;;;;;5081413;28;20221;-66
2022/07/27 09:58:50;;;;;;;7.05;1.77;;;33.00;91.30;;;;;;5093589;28;20186;-65
2022/07/27 10:01:33;;;;;;;5.13;2.15;;;33.10;91.80;;;;;;5086041;28;20212;-65
2022/07/27 10:04:06;;;;;;;5.53;1.65;;;33.30;91.80;;;;;;5086228;28;20233;-66
2022/07/27 10:06:33;;;;;;;5.15;1.65;;;33.40;90.60;;;;;;5066543;28;20690;-68
2022/07/27 10:09:01;;;;;;;4.28;2.08;;;33.40;91.00;;;;;;5085945;28;20190;-67
2022/07/27 10:11:30;;;;;;;7.53;2.00;;;33.60;91.10;;;;;;5088477;28;20194;-65
2022/07/27 10:13:58;;;;;;;4.30;2.15;;;33.70;91.10;;;;;;5068134;28;20244;-65
2022/07/27 10:16:30;;;;;;;4.75;2.20;;;33.70;90.50;;;;;;5087725;28;20212;-66
2022/07/27 10:19:00;;;;;;;3.13;1.83;;;33.80;90.70;;;;;;5088351;28;20380;-64
2022/07/27 10:21:28;;;;;;;3.65;1.90;;;34.00;90.40;;;;;;5067244;28;20649;-66
2022/07/27 10:24:02;;;;;;;10.30;1.92;;;34.10;90.30;;;;;;5087762;28;20205;-65
2022/07/27 10:26:36;;;;;;;7.35;2.00;;;34.10;90.20;;;;;;5085716;28;20533;-66
2022/07/27 10:29:12;;;;;;;4.72;1.98;;;34.10;87.50;;;;;;5081121;28;20185;-64
2022/07/27 10:31:41;;;;;;;3.10;2.13;;;34.10;87.00;;;;;;5086658;28;20645;-65
2022/07/27 10:34:11;;;;;;;4.57;2.00;;;34.10;88.10;;;;;;5072658;28;20658;-66
2022/07/27 10:36:53;;;;;;;3.97;1.90;;;34.20;87.40;;;;;;5077529;28;20202;-64
2022/07/27 10:39:33;;;;;;;4.50;1.83;;;34.10;88.70;;;;;;5080694;28;20246;-66
2022/07/27 10:42:30;;;;;;;4.50;2.10;;;34.10;88.30;;;;;;5065504;28;20396;-68
2022/07/27 10:45:02;;;;;;;3.00;1.83;;;34.10;86.80;;;;;;5082864;28;20273;-67
2022/07/27 10:47:33;;;;;;;2.90;1.92;;;34.10;84.80;;;;;;5085347;28;20182;-65
2022/07/27 10:50:15;;;;;;;4.15;2.10;;;34.10;85.00;;;;;;5083722;28;20181;-64
2022/07/27 10:52:52;;;;;;;4.72;1.80;;;34.20;84.40;;;;;;5085305;28;20209;-65
2022/07/27 10:55:43;;;;;;;6.72;1.98;;;34.30;83.60;;;;;;5081572;28;20286;-66
2022/07/27 10:58:09;;;;;;;5.82;2.00;;;34.20;82.00;;;;;;5072368;28;20228;-64
2022/07/27 11:00:51;;;;;;;4.72;1.90;;;34.30;84.50;;;;;;5082076;28;20611;-64
2022/07/27 11:03:36;;;;;;;4.75;1.88;;;34.40;84.90;;;;;;5086593;28;20210;-67
2022/07/27 11:06:17;;;;;;;4.50;1.90;;;34.30;82.50;;;;;;5084276;28;20663;-64
2022/07/27 11:08:46;;;;;;;3.35;1.80;;;34.40;83.50;;;;;;5069191;28;20268;-66
2022/07/27 11:11:24;;;;;;;6.43;1.88;;;34.40;80.20;;;;;;5079517;28;20252;-64
2022/07/27 11:13:56;;;;;;;4.35;2.10;;;34.30;82.50;;;;;;5067449;28;20180;-64
2022/07/27 11:16:24;;;;;;;6.97;2.17;;;34.20;80.90;;;;;;5064873;28;20214;-65
2022/07/27 11:19:18;;;;;;;4.57;1.95;;;34.20;81.90;;;;;;5050123;28;20187;-66
2022/07/27 11:21:51;;;;;;;4.68;1.50;;;34.20;84.10;;;;;;5063824;28;20182;-66
2022/07/27 11:24:18;;;;;;;5.40;1.85;;;34.30;83.30;;;;;;5087037;28;20259;-65
2022/07/27 11:26:50;;;;;;;3.80;1.63;;;34.30;82.00;;;;;;5066607;28;20202;-65
2022/07/27 11:29:23;;;;;;;3.80;1.80;;;34.20;84.10;;;;;;5071762;28;20595;-65
2022/07/27 11:31:53;;;;;;;6.22;1.60;;;34.10;85.60;;;;;;5087503;28;20271;-65
2022/07/27 11:34:34;;;;;;;10.45;1.92;;;34.10;85.80;;;;;;5084271;28;20194;-67
2022/07/27 11:37:11;;;;;;;3.20;1.67;;;34.00;87.00;;;;;;5076082;28;20213;-66
2022/07/27 11:39:37;;;;;;;9.65;1.80;;;34.00;87.40;;;;;;5075529;28;20186;-65
2022/07/27 11:42:07;;;;;;;2.40;1.70;;;34.00;88.70;;;;;;5046660;28;20919;-64
2022/07/27 11:44:39;;;;;;;2.03;1.50;;;33.90;88.80;;;;;;5070926;28;20218;-66
2022/07/27 11:47:05;;;;;;;4.32;1.67;;;33.90;90.30;;;;;;5062384;28;20188;-65
2022/07/27 11:49:33;;;;;;;6.53;1.77;;;33.90;90.10;;;;;;5048897;28;20217;-67
2022/07/27 11:52:10;;;;;;;7.10;1.60;;;33.90;90.00;;;;;;5083657;28;20194;-68
2022/07/27 11:54:41;;;;;;;4.53;1.80;;;33.80;90.50;;;;;;5064783;28;20197;-66
2022/07/27 11:57:15;;;;;;;3.17;1.80;;;33.70;90.90;;;;;;5062343;28;20203;-64
2022/07/27 11:59:43;;;;;;;3.35;1.75;;;33.60;91.10;;;;;;5078228;28;20559;-64
2022/07/27 12:02:18;;;;;;;5.47;1.50;;;33.80;91.20;;;;;;5081211;28;20569;-65
2022/07/27 12:04:48;;;;;;;3.03;1.88;;;33.70;91.30;;;;;;5086175;28;20190;-65
2022/07/27 12:07:30;;;;;;;5.10;1.95;;;33.60;91.20;;;;;;5063870;28;20197;-66
2022/07/27 12:10:05;;;;;;;4.00;1.58;;;33.70;92.10;;;;;;5068945;28;20741;-65
2022/07/27 12:12:42;;;;;;;6.25;1.90;;;33.60;92.60;;;;;;5069423;28;20202;-67
2022/07/27 12:15:24;;;;;;;3.50;1.77;;;33.40;93.20;;;;;;5064952;28;20213;-64
2022/07/27 12:17:58;;;;;;;5.05;2.00;;;33.30;93.30;;;;;;5062881;28;20209;-64
2022/07/27 12:20:36;;;;;;;5.75;1.77;;;33.20;93.80;;;;;;5086811;28;20235;-66
2022/07/27 12:23:06;;;;;;;2.90;1.45;;;33.20;93.60;;;;;;5082580;28;20859;-65
2022/07/27 12:25:35;;;;;;;3.65;1.67;;;33.20;94.10;;;;;;5087983;28;20198;-64
2022/07/27 12:28:24;;;;;;;2.38;1.50;;;33.20;93.90;;;;;;5086016;28;20194;-64
2022/07/27 12:30:53;;;;;;;3.78;1.80;;;33.10;94.50;;;;;;5056111;28;20206;-65
2022/07/27 12:33:25;;;;;;;11.02;2.10;;;33.10;94.90;;;;;;5067247;28;20277;-65
2022/07/27 12:35:51;;;;;;;7.07;2.20;;;33.10;95.30;;;;;;5085841;28;20637;-65
2022/07/27 12:38:18;;;;;;;9.48;1.80;;;33.10;95.20;;;;;;5070263;28;20690;-64
2022/07/27 12:40:52;;;;;;;6.30;2.00;;;33.00;95.80;;;;;;5086456;28;20185;-65
2022/07/27 12:43:23;;;;;;;6.70;1.80;;;32.90;96.10;;;;;;5087975;28;20185;-68
2022/07/27 12:45:53;;;;;;;8.98;2.28;;;32.80;96.90;;;;;;5075919;28;20186;-68
2022/07/27 12:48:26;;;;;;;5.18;1.85;;;32.90;97.20;;;;;;5083148;28;20183;-65
2022/07/27 12:51:03;;;;;;;6.82;2.25;;;32.80;97.00;;;;;;5082313;28;20190;-66
2022/07/27 12:53:31;;;;;;;5.75;1.88;;;32.80;97.00;;;;;;5060093;28;20197;-66
2022/07/27 12:56:04;;;;;;;4.30;1.73;;;32.80;96.70;;;;;;5081264;28;20214;-64
2022/07/27 12:58:30;;;;;;;3.75;1.73;;;32.80;96.50;;;;;;5087643;28;20679;-67
2022/07/27 13:00:57;;;;;;;5.45;1.95;;;32.80;96.50;;;;;;5083699;28;20216;-64